Time;durP1;ratioP1;P1;durP2;ratioP2;P2;SDS_P1;SDS_P2;PMS_P1;PMS_P2;Temp;Humidity;BMP_temperature;BMP_pressure;BME280_temperature;BME280_humidity;BME280_pressure;Samples;Min_cycle;Max_cycle;Signal;HPM_P1;HPM_P2
2022/04/13 00:00:09;;;;;;;17.05;6.32;;;;;;;13.00;72.16;101105.69;4991659;28;20504;-83
2022/04/13 00:02:34;;;;;;;14.55;6.03;;;;;;;13.03;72.07;101108.19;4991610;28;20037;-83
2022/04/13 00:05:00;;;;;;;17.90;7.73;;;;;;;13.06;70.13;101102.88;4991185;28;20030;-83
2022/04/13 00:07:25;;;;;;;13.02;6.75;;;;;;;13.10;69.99;101107.09;4991652;28;20703;-83
2022/04/13 00:09:50;;;;;;;14.90;7.00;;;;;;;13.12;70.41;101107.91;4990206;28;20030;-83
2022/04/13 00:12:15;;;;;;;16.88;6.50;;;;;;;13.12;70.12;101109.66;4996015;28;20343;-83
2022/04/13 00:14:41;;;;;;;17.23;6.30;;;;;;;13.11;71.77;101114.00;5004103;28;20090;-83
2022/04/13 00:17:08;;;;;;;14.02;6.68;;;;;;;13.07;72.07;101109.81;4992443;28;20124;-83
2022/04/13 00:19:33;;;;;;;13.63;6.28;;;;;;;12.99;74.04;101106.56;4991393;28;20343;-83
2022/04/13 00:21:59;;;;;;;10.45;5.78;;;;;;;12.93;73.05;101106.75;4991116;28;20261;-83
2022/04/13 00:24:24;;;;;;;15.23;6.18;;;;;;;12.87;74.70;101107.78;5024655;28;20032;-83
2022/04/13 00:26:49;;;;;;;12.15;6.30;;;;;;;12.79;73.33;101114.94;4992467;28;20087;-83
2022/04/13 00:29:15;;;;;;;13.35;6.65;;;;;;;12.72;74.80;101115.16;4991043;28;20045;-83
2022/04/13 00:31:40;;;;;;;14.17;6.30;;;;;;;12.65;72.41;101115.34;4991208;28;20034;-83
2022/04/13 00:34:05;;;;;;;15.05;7.10;;;;;;;12.61;75.54;101118.94;4990651;28;20381;-83
2022/04/13 00:36:31;;;;;;;18.83;7.90;;;;;;;12.59;72.81;101125.91;4993883;28;20041;-83
2022/04/13 00:38:56;;;;;;;15.63;7.43;;;;;;;12.57;74.02;101122.50;4990749;28;20034;-83
2022/04/13 00:41:22;;;;;;;13.65;6.93;;;;;;;12.58;73.33;101129.41;5022962;28;20046;-83
2022/04/13 00:44:08;;;;;;;14.20;6.70;;;;;;;12.54;72.16;101132.16;4987470;28;20563;-84
2022/04/13 00:46:34;;;;;;;15.77;7.47;;;;;;;12.54;73.84;101133.00;4983764;28;20034;-83
2022/04/13 00:49:00;;;;;;;13.88;6.82;;;;;;;12.56;71.74;101135.53;4997710;28;20037;-83
2022/04/13 00:51:26;;;;;;;15.48;7.35;;;;;;;12.58;75.96;101142.41;5002200;28;20061;-83
2022/04/13 00:53:53;;;;;;;13.48;7.20;;;;;;;12.56;76.64;101141.59;5000258;28;20111;-83
2022/04/13 00:56:23;;;;;;;15.95;6.88;;;;;;;12.51;74.32;101147.81;4996882;28;20101;-83
2022/04/13 00:58:52;;;;;;;14.68;6.88;;;;;;;12.49;71.95;101147.84;4989176;28;20033;-83
2022/04/13 01:01:18;;;;;;;14.95;6.65;;;;;;;12.44;71.58;101154.94;4993362;28;20018;-83
2022/04/13 01:03:44;;;;;;;14.70;7.05;;;;;;;12.42;73.03;101156.69;4998200;28;20390;-83
2022/04/13 01:06:10;;;;;;;17.25;6.85;;;;;;;12.40;72.10;101155.91;5003784;28;20049;-83
2022/04/13 01:08:38;;;;;;;12.25;6.68;;;;;;;12.39;74.90;101158.53;5002340;28;20133;-83
2022/04/13 01:11:03;;;;;;;12.57;6.35;;;;;;;12.36;75.76;101158.59;5000902;28;20021;-83
2022/04/13 01:13:29;;;;;;;13.82;6.63;;;;;;;12.32;72.65;101160.44;5002499;28;20053;-83
2022/04/13 01:15:54;;;;;;;15.98;6.80;;;;;;;12.32;73.60;101172.59;4998806;28;20490;-83
2022/04/13 01:18:20;;;;;;;19.42;7.25;;;;;;;12.28;73.29;101174.44;5005763;28;20061;-83
2022/04/13 01:20:52;;;;;;;12.82;6.60;;;;;;;12.25;73.55;101182.28;5006284;28;20041;-83
2022/04/13 01:23:17;;;;;;;16.73;6.57;;;;;;;12.27;72.91;101183.13;5002903;28;20096;-83
2022/04/13 01:25:51;;;;;;;17.02;6.30;;;;;;;12.26;72.76;101177.06;4997200;28;20076;-83
2022/04/13 01:28:17;;;;;;;16.88;6.65;;;;;;;12.27;72.60;101186.56;4996468;28;20436;-83
2022/04/13 01:30:42;;;;;;;14.63;6.78;;;;;;;12.30;72.38;101198.63;5002727;28;20029;-83
2022/04/13 01:33:08;;;;;;;14.85;6.55;;;;;;;12.34;72.32;101200.28;4998282;28;20069;-83
2022/04/13 01:35:33;;;;;;;16.20;6.57;;;;;;;12.34;72.42;101200.28;5001589;28;20438;-83
2022/04/13 01:37:59;;;;;;;15.48;6.65;;;;;;;12.38;71.83;101203.63;4994053;28;20038;-83
2022/04/13 01:40:24;;;;;;;17.17;7.00;;;;;;;12.41;75.87;101204.41;4998324;28;20026;-83
2022/04/13 01:42:49;;;;;;;16.03;6.90;;;;;;;12.42;73.27;101211.28;4995437;28;20022;-83
2022/04/13 01:45:19;;;;;;;18.55;7.15;;;;;;;12.42;72.63;101213.91;5002106;28;20285;-83
2022/04/13 01:47:49;;;;;;;19.35;8.35;;;;;;;12.52;72.79;101217.13;4993901;28;20025;-83
2022/04/13 01:50:19;;;;;;;23.15;8.32;;;;;;;12.61;72.67;101219.50;4994308;28;20508;-83
2022/04/13 01:52:48;;;;;;;17.88;8.25;;;;;;;12.66;74.56;101225.44;4992799;28;20551;-83
2022/04/13 01:55:13;;;;;;;18.63;9.55;;;;;;;12.71;72.37;101222.69;5003402;28;20021;-83
2022/04/13 01:57:41;;;;;;;19.42;8.57;;;;;;;12.80;72.50;101232.88;4997481;28;20389;-83
2022/04/13 02:00:09;;;;;;;20.02;9.00;;;;;;;12.83;72.93;101232.81;5000348;28;20044;-83
2022/04/13 02:02:35;;;;;;;21.80;8.57;;;;;;;12.87;71.91;101231.81;4994112;28;20032;-83
2022/04/13 02:05:01;;;;;;;20.08;8.40;;;;;;;12.87;72.90;101224.88;4996294;28;20034;-83
2022/04/13 02:07:28;;;;;;;21.55;8.20;;;;;;;12.90;71.85;101229.97;4993025;28;20515;-83
2022/04/13 02:09:54;;;;;;;18.58;8.60;;;;;;;12.92;72.98;101238.59;4999344;28;20038;-83
2022/04/13 02:12:20;;;;;;;19.90;7.97;;;;;;;12.93;71.78;101229.91;4995320;28;20022;-83
2022/04/13 02:14:45;;;;;;;21.67;8.30;;;;;;;12.94;73.36;101231.63;5001599;28;20037;-83
2022/04/13 02:17:14;;;;;;;17.63;8.25;;;;;;;12.94;72.54;101233.34;5008038;28;20038;-83
2022/04/13 02:19:40;;;;;;;18.25;8.88;;;;;;;12.96;72.39;101239.38;4991844;28;20038;-83
2022/04/13 02:22:07;;;;;;;15.75;9.20;;;;;;;12.95;71.93;101241.13;4998263;28;20030;-83
2022/04/13 02:24:34;;;;;;;21.30;9.10;;;;;;;12.96;73.66;101237.63;5001233;28;20549;-83
2022/04/13 02:27:00;;;;;;;18.77;8.63;;;;;;;12.97;74.37;101241.91;4995574;28;20070;-83
2022/04/13 02:29:26;;;;;;;20.00;8.63;;;;;;;12.96;72.37;101250.66;5000048;28;20062;-83
2022/04/13 02:31:51;;;;;;;18.17;8.87;;;;;;;12.99;72.79;101249.69;4995857;28;20080;-83
2022/04/13 02:34:17;;;;;;;18.65;8.75;;;;;;;13.00;72.73;101254.00;4999495;28;20655;-83
2022/04/13 02:36:43;;;;;;;13.50;7.93;;;;;;;12.99;74.47;101252.28;4997725;28;20169;-83
2022/04/13 02:39:08;;;;;;;16.35;8.18;;;;;;;12.96;76.45;101250.66;5014953;28;20400;-83
2022/04/13 02:41:34;;;;;;;17.52;8.80;;;;;;;12.91;76.57;101246.44;5004815;28;20021;-83
2022/04/13 02:43:59;;;;;;;14.80;8.10;;;;;;;12.88;75.95;101255.19;5002260;28;20030;-83
2022/04/13 02:46:24;;;;;;;16.23;7.85;;;;;;;12.84;75.35;101260.50;5002337;28;20315;-83
2022/04/13 02:48:50;;;;;;;17.50;9.10;;;;;;;12.80;74.18;101262.34;4999589;28;20054;-83
2022/04/13 02:51:15;;;;;;;14.73;8.40;;;;;;;12.74;75.43;101261.66;4995703;28;20297;-83
2022/04/13 02:53:40;;;;;;;19.00;9.43;;;;;;;12.71;74.18;101265.19;5004381;28;20285;-83
2022/04/13 02:56:05;;;;;;;18.45;9.20;;;;;;;12.68;74.89;101270.47;4999958;28;20284;-83
2022/04/13 02:58:32;;;;;;;18.70;9.48;;;;;;;12.66;75.63;101269.66;5000550;28;20510;-83
2022/04/13 03:00:57;;;;;;;18.30;9.40;;;;;;;12.60;76.18;101273.25;4996973;28;20032;-83
2022/04/13 03:03:22;;;;;;;19.58;9.60;;;;;;;12.57;74.17;101278.53;5000403;28;20340;-82
2022/04/13 03:05:48;;;;;;;21.50;9.03;;;;;;;12.53;74.31;101271.72;5001020;28;20030;-83
2022/04/13 03:08:13;;;;;;;20.73;9.57;;;;;;;12.51;76.61;101281.28;5009280;28;20289;-83
2022/04/13 03:10:39;;;;;;;18.30;9.15;;;;;;;12.48;77.05;101288.31;4997254;28;20598;-83
2022/04/13 03:13:05;;;;;;;19.67;9.40;;;;;;;12.37;75.85;101278.16;5000896;28;20030;-83
2022/04/13 03:15:30;;;;;;;16.63;8.82;;;;;;;12.35;76.93;101282.53;5002453;28;20018;-83
2022/04/13 03:17:55;;;;;;;20.30;9.90;;;;;;;12.31;78.49;101280.91;5000858;28;20499;-83
2022/04/13 03:20:20;;;;;;;20.33;9.93;;;;;;;12.26;78.72;101274.97;4995525;28;20296;-83
2022/04/13 03:22:46;;;;;;;18.20;8.95;;;;;;;12.18;78.59;101269.94;4998225;28;20790;-83
2022/04/13 03:25:12;;;;;;;20.60;9.73;;;;;;;12.12;78.79;101274.44;4994905;28;20431;-83
2022/04/13 03:27:37;;;;;;;19.15;9.57;;;;;;;12.00;79.40;101265.19;4990608;28;20041;-83
2022/04/13 03:30:04;;;;;;;20.63;9.82;;;;;;;11.90;79.12;101276.66;5030105;28;20030;-83
2022/04/13 03:32:37;;;;;;;19.35;9.23;;;;;;;11.82;79.55;101273.38;5000222;28;20377;-83
2022/04/13 03:35:04;;;;;;;18.25;10.40;;;;;;;11.70;79.54;101281.41;4992653;28;20022;-83
2022/04/13 03:37:29;;;;;;;20.77;9.90;;;;;;;11.60;79.96;101275.53;4993515;28;20058;-83
2022/04/13 03:39:55;;;;;;;18.90;9.80;;;;;;;11.49;79.71;101278.38;4997657;28;20084;-83
2022/04/13 03:42:20;;;;;;;23.67;9.53;;;;;;;11.38;79.28;101274.28;4999624;28;20313;-83
2022/04/13 03:44:45;;;;;;;20.13;10.33;;;;;;;11.31;80.51;101276.16;4997774;28;20351;-83
2022/04/13 03:47:10;;;;;;;21.40;9.63;;;;;;;11.20;81.21;101275.50;4999839;28;20311;-83
2022/04/13 03:49:36;;;;;;;23.30;10.33;;;;;;;11.12;80.87;101282.59;5000583;28;20292;-83
2022/04/13 03:52:01;;;;;;;20.77;9.90;;;;;;;11.01;81.98;101282.78;4996147;28;20773;-83
2022/04/13 03:54:26;;;;;;;23.00;9.65;;;;;;;10.97;82.18;101288.91;4992978;28;20315;-83
2022/04/13 03:56:53;;;;;;;22.30;9.80;;;;;;;10.89;81.68;101288.19;5002304;28;20053;-84
2022/04/13 03:59:20;;;;;;;19.52;9.75;;;;;;;10.84;81.46;101295.19;5001577;28;20041;-83
2022/04/13 04:01:46;;;;;;;25.48;10.10;;;;;;;10.76;81.73;101285.84;5005552;28;20026;-84
2022/04/13 04:04:11;;;;;;;22.27;10.07;;;;;;;10.69;82.14;101288.53;4995241;28;20031;-83
2022/04/13 04:06:37;;;;;;;22.20;10.00;;;;;;;10.65;81.71;101298.97;4998677;28;20037;-84
2022/04/13 04:09:02;;;;;;;22.73;9.77;;;;;;;10.62;82.31;101299.03;4998925;28;21250;-83
2022/04/13 04:11:27;;;;;;;20.02;10.30;;;;;;;10.55;82.24;101300.00;5004941;28;20058;-84
2022/04/13 04:13:53;;;;;;;20.23;10.02;;;;;;;10.49;82.76;101300.97;5002338;28;20432;-84
2022/04/13 04:16:18;;;;;;;20.05;10.35;;;;;;;10.42;82.56;101304.53;4999259;28;20417;-84
2022/04/13 04:18:45;;;;;;;18.13;10.13;;;;;;;10.36;82.66;101308.97;4998707;28;20558;-84
2022/04/13 04:21:10;;;;;;;23.48;10.88;;;;;;;10.32;83.91;101315.06;5000383;28;20040;-84
2022/04/13 04:23:36;;;;;;;23.60;10.00;;;;;;;10.26;82.26;101323.78;4998181;28;20017;-84
2022/04/13 04:26:01;;;;;;;21.27;10.70;;;;;;;10.22;83.64;101314.34;4996498;28;20040;-84
2022/04/13 04:28:26;;;;;;;18.55;10.15;;;;;;;10.18;83.14;101330.81;5003242;28;20552;-84
2022/04/13 04:30:52;;;;;;;19.93;10.60;;;;;;;10.14;83.92;101335.16;4994441;28;20480;-84
2022/04/13 04:33:17;;;;;;;24.03;10.67;;;;;;;10.09;83.56;101326.59;4989668;28;20282;-84
2022/04/13 04:35:47;;;;;;;20.52;10.60;;;;;;;10.04;83.70;101332.69;5022563;28;20714;-84
2022/04/13 04:38:13;;;;;;;19.98;10.80;;;;;;;10.00;83.88;101333.63;4993706;28;20476;-83
2022/04/13 04:40:39;;;;;;;21.92;10.75;;;;;;;9.95;84.19;101333.69;4994661;28;20117;-84
2022/04/13 04:43:04;;;;;;;20.90;10.38;;;;;;;9.87;82.49;101336.38;4992314;28;20121;-84
2022/04/13 04:45:30;;;;;;;20.15;10.73;;;;;;;9.89;83.70;101338.97;4995625;28;20046;-84
2022/04/13 04:47:57;;;;;;;18.58;11.63;;;;;;;9.83;84.40;101336.41;4996800;28;20121;-84
2022/04/13 04:50:23;;;;;;;23.02;12.02;;;;;;;9.82;85.26;101334.72;5004892;28;20061;-84
2022/04/13 04:52:49;;;;;;;27.73;12.05;;;;;;;9.79;85.40;101364.09;4993878;28;20448;-84
2022/04/13 04:55:17;;;;;;;24.15;11.60;;;;;;;9.78;83.57;101359.78;5007048;28;20026;-84
2022/04/13 04:57:42;;;;;;;23.52;12.23;;;;;;;9.81;85.22;101358.91;4989102;28;20484;-84
2022/04/13 05:00:11;;;;;;;23.08;12.23;;;;;;;9.85;85.58;101357.97;4987747;28;20041;-84
2022/04/13 05:02:37;;;;;;;25.70;12.85;;;;;;;9.87;86.04;101357.09;4990065;28;20030;-83
2022/04/13 05:05:04;;;;;;;24.75;12.77;;;;;;;9.91;87.04;101363.94;4998900;28;20068;-84
2022/04/13 05:07:29;;;;;;;27.17;12.65;;;;;;;9.98;85.73;101371.63;5005747;28;20026;-83
2022/04/13 05:09:54;;;;;;;25.47;12.90;;;;;;;10.06;86.62;101369.78;5013590;28;20029;-84
2022/04/13 05:12:20;;;;;;;22.60;12.55;;;;;;;10.12;87.34;101375.75;5004454;28;20628;-84
2022/04/13 05:14:45;;;;;;;29.73;13.45;;;;;;;10.20;87.44;101384.31;4994366;28;20065;-84
2022/04/13 05:17:10;;;;;;;25.10;13.27;;;;;;;10.25;87.29;101385.09;4997710;28;20422;-83
2022/04/13 05:19:36;;;;;;;31.00;14.70;;;;;;;10.30;87.17;101380.72;4999409;28;20065;-83
2022/04/13 05:22:01;;;;;;;27.13;14.48;;;;;;;10.37;84.94;101389.28;4995641;28;20083;-83
2022/04/13 05:24:26;;;;;;;25.63;14.00;;;;;;;10.49;86.41;101394.28;4997769;28;20086;-83
2022/04/13 05:26:52;;;;;;;30.70;13.17;;;;;;;10.62;86.66;101400.13;4989967;28;20388;-83
2022/04/13 05:29:17;;;;;;;29.17;15.00;;;;;;;10.74;87.43;101392.16;4990037;28;20384;-83
2022/04/13 05:31:42;;;;;;;29.38;14.65;;;;;;;10.86;86.88;101397.16;4990045;28;20807;-83
2022/04/13 05:34:08;;;;;;;27.88;14.60;;;;;;;10.99;87.10;101395.22;5000625;28;20077;-83
2022/04/13 05:36:34;;;;;;;25.63;14.75;;;;;;;11.12;87.19;101401.94;4989970;28;20284;-83
2022/04/13 05:38:59;;;;;;;28.10;14.85;;;;;;;11.25;86.20;101400.84;4988348;28;20022;-84
2022/04/13 05:41:24;;;;;;;32.77;16.80;;;;;;;11.42;86.55;101409.16;4989210;28;20125;-84
2022/04/13 05:43:50;;;;;;;30.15;15.93;;;;;;;11.64;85.02;101407.03;4986178;28;20289;-84
2022/04/13 05:46:15;;;;;;;31.92;17.40;;;;;;;11.92;85.92;101417.78;4989018;28;20031;-84
2022/04/13 05:48:40;;;;;;;33.25;17.20;;;;;;;12.13;82.77;101413.88;4988644;28;20053;-84
2022/04/13 05:51:06;;;;;;;37.23;17.90;;;;;;;12.30;84.30;101411.78;4986747;28;20133;-84
2022/04/13 05:53:31;;;;;;;35.83;18.40;;;;;;;12.40;83.74;101415.03;5021051;28;20671;-84
2022/04/13 05:55:56;;;;;;;35.58;17.80;;;;;;;12.52;81.21;101426.03;4994873;28;20030;-84
2022/04/13 05:58:26;;;;;;;40.80;17.85;;;;;;;12.60;81.49;101421.50;4992938;28;20084;-84
2022/04/13 06:00:53;;;;;;;34.30;17.70;;;;;;;12.72;79.93;101425.56;4989609;28;20523;-84
2022/04/13 06:03:18;;;;;;;31.92;17.73;;;;;;;12.85;81.72;101418.31;4989620;28;20480;-84
2022/04/13 06:05:45;;;;;;;34.40;18.35;;;;;;;12.99;82.04;101424.06;4991845;28;20033;-84
2022/04/13 06:08:10;;;;;;;37.58;19.15;;;;;;;13.15;79.95;101435.84;4992102;28;20109;-84
2022/04/13 06:10:35;;;;;;;35.92;18.48;;;;;;;13.29;81.21;101436.34;4989400;28;20122;-85
2022/04/13 06:13:01;;;;;;;38.35;19.40;;;;;;;13.40;80.30;101431.72;4986858;28;20273;-84
2022/04/13 06:15:28;;;;;;;40.38;20.02;;;;;;;13.58;80.27;101445.16;4988934;28;20026;-84
2022/04/13 06:17:54;;;;;;;34.95;20.40;;;;;;;13.71;81.92;101447.41;4983439;28;20069;-84
2022/04/13 06:20:19;;;;;;;33.80;19.15;;;;;;;13.90;80.65;101446.88;4987507;28;20451;-84
2022/04/13 06:22:44;;;;;;;35.83;20.20;;;;;;;14.05;80.83;101446.47;4988369;28;20072;-84
2022/04/13 06:25:11;;;;;;;40.97;20.90;;;;;;;14.20;79.94;101454.69;4993401;28;20301;-84
2022/04/13 06:27:37;;;;;;;40.85;20.83;;;;;;;14.35;79.57;101452.53;4989206;28;20289;-84
2022/04/13 06:30:03;;;;;;;40.15;21.58;;;;;;;14.53;77.59;101460.69;4989880;28;20088;-84
2022/04/13 06:32:36;;;;;;;37.28;19.80;;;;;;;14.71;76.63;101459.28;4996636;28;20030;-84
2022/04/13 06:35:07;;;;;;;39.38;19.15;;;;;;;14.89;75.48;101461.31;5006242;28;20018;-84
2022/04/13 06:37:32;;;;;;;39.72;19.75;;;;;;;15.02;75.82;101454.81;4993124;28;20034;-84
2022/04/13 06:39:57;;;;;;;36.40;19.33;;;;;;;15.17;74.09;101460.44;5000781;28;20034;-85
2022/04/13 06:42:23;;;;;;;40.75;19.88;;;;;;;15.32;73.42;101452.94;4988294;28;20053;-85
2022/04/13 06:44:50;;;;;;;37.53;18.17;;;;;;;15.46;71.93;101456.84;4988467;28;20288;-85
2022/04/13 06:47:15;;;;;;;36.35;17.83;;;;;;;15.59;73.54;101459.03;4997283;28;20061;-84
2022/04/13 06:49:41;;;;;;;34.35;18.40;;;;;;;15.69;73.43;101462.19;5022213;28;20040;-85
2022/04/13 06:52:06;;;;;;;34.57;17.90;;;;;;;15.71;72.55;101466.44;4984588;28;20196;-85
2022/04/13 06:54:31;;;;;;;36.53;18.40;;;;;;;15.66;71.91;101470.97;5001816;28;20365;-85
2022/04/13 06:56:56;;;;;;;34.17;18.50;;;;;;;15.63;71.54;101478.91;4986134;28;20046;-85
2022/04/13 06:59:22;;;;;;;40.00;19.53;;;;;;;15.52;71.02;101483.63;4991317;28;20297;-85
2022/04/13 07:01:47;;;;;;;39.08;18.73;;;;;;;15.46;72.52;101483.84;4983492;28;20375;-85
2022/04/13 07:04:12;;;;;;;39.30;19.38;;;;;;;15.47;74.09;101495.16;5023995;28;20113;-86
2022/04/13 07:06:38;;;;;;;50.17;19.80;;;;;;;15.48;72.08;101505.56;4992788;28;20034;-85
2022/04/13 07:09:03;;;;;;;42.63;20.80;;;;;;;15.49;71.69;101509.84;4994781;28;20113;-85
2022/04/13 07:11:28;;;;;;;41.28;20.67;;;;;;;15.56;72.87;101506.16;4992783;28;20036;-85
2022/04/13 07:13:55;;;;;;;42.30;20.48;;;;;;;15.58;73.17;101503.50;4992780;28;20105;-84
2022/04/13 07:16:20;;;;;;;40.17;21.13;;;;;;;15.65;71.88;101507.63;4991269;28;20033;-85
2022/04/13 07:18:45;;;;;;;42.85;20.90;;;;;;;15.74;72.17;101509.94;4992785;28;20026;-85
2022/04/13 07:21:11;;;;;;;45.33;21.57;;;;;;;15.82;70.68;101512.28;5004472;28;20026;-85
2022/04/13 07:23:36;;;;;;;40.10;20.60;;;;;;;15.90;70.04;101520.72;4998845;28;21297;-85
2022/04/13 07:26:02;;;;;;;44.90;21.00;;;;;;;15.85;70.25;101528.69;4994010;28;20316;-84
2022/04/13 07:28:27;;;;;;;44.88;22.33;;;;;;;15.75;69.94;101533.41;4995861;28;20029;-85
2022/04/13 07:30:52;;;;;;;44.58;22.38;;;;;;;15.69;70.45;101546.66;4995198;28;20026;-85
2022/04/13 07:33:18;;;;;;;42.28;22.25;;;;;;;15.66;72.48;101546.78;5001568;28;20030;-85
2022/04/13 07:35:43;;;;;;;45.40;21.70;;;;;;;15.75;71.72;101550.84;4998152;28;20041;-84
2022/04/13 07:38:08;;;;;;;47.30;23.05;;;;;;;15.74;70.31;101547.38;4998351;28;20657;-83
2022/04/13 07:40:34;;;;;;;43.83;23.00;;;;;;;15.73;70.97;101552.66;4987822;28;20030;-84
2022/04/13 07:42:59;;;;;;;48.00;22.70;;;;;;;15.75;71.45;101551.72;4992196;28;20428;-84
2022/04/13 07:45:24;;;;;;;43.10;22.67;;;;;;;15.88;70.41;101554.75;4990457;28;20928;-84
2022/04/13 07:47:49;;;;;;;46.80;22.47;;;;;;;16.00;70.95;101543.84;4991764;28;20480;-84
2022/04/13 07:50:15;;;;;;;45.17;21.50;;;;;;;16.19;69.50;101551.91;4990422;28;20273;-84
2022/04/13 07:52:43;;;;;;;43.58;22.23;;;;;;;16.36;69.10;101546.09;4996898;28;20786;-84
2022/04/13 07:55:10;;;;;;;40.88;21.77;;;;;;;16.60;70.79;101550.44;4992097;28;20022;-84
2022/04/13 07:57:37;;;;;;;45.08;23.20;;;;;;;16.84;68.65;101552.13;4992276;28;20033;-84
2022/04/13 08:00:04;;;;;;;39.75;22.02;;;;;;;17.01;67.02;101554.09;4990182;28;20029;-84
2022/04/13 08:02:32;;;;;;;45.03;22.05;;;;;;;17.03;66.71;101556.66;4990742;28;20530;-84
2022/04/13 08:04:57;;;;;;;40.92;19.80;;;;;;;17.01;66.81;101561.94;4984839;28;20032;-84
2022/04/13 08:07:23;;;;;;;39.80;20.33;;;;;;;17.04;68.38;101561.84;4996688;28;20038;-84
2022/04/13 08:09:48;;;;;;;42.50;21.35;;;;;;;17.25;67.23;101561.00;4991500;28;20274;-84
2022/04/13 08:12:17;;;;;;;38.70;20.63;;;;;;;17.81;67.23;101570.94;4991154;28;20129;-84
2022/04/13 08:14:45;;;;;;;37.47;21.30;;;;;;;18.30;65.54;101569.69;4993664;28;20774;-84
2022/04/13 08:17:10;;;;;;;36.90;19.98;;;;;;;18.75;65.08;101572.06;4993320;28;20023;-84
2022/04/13 08:19:36;;;;;;;34.47;19.10;;;;;;;18.87;62.66;101581.16;4993642;28;20026;-84
2022/04/13 08:22:01;;;;;;;35.10;19.65;;;;;;;19.05;62.34;101580.28;5000324;28;20655;-84
2022/04/13 08:24:27;;;;;;;35.17;18.83;;;;;;;19.57;61.39;101581.31;4991466;28;20080;-84
2022/04/13 08:26:52;;;;;;;30.65;17.85;;;;;;;20.12;60.69;101575.88;5002246;28;20028;-84
2022/04/13 08:29:17;;;;;;;31.87;16.90;;;;;;;20.50;55.95;101581.78;4989923;28;20030;-84
2022/04/13 08:31:42;;;;;;;25.57;16.33;;;;;;;20.48;56.50;101575.75;4995446;28;20307;-84
2022/04/13 08:34:08;;;;;;;30.47;16.60;;;;;;;20.52;57.31;101577.31;5000911;28;20380;-83
2022/04/13 08:36:33;;;;;;;33.07;18.07;;;;;;;20.71;57.06;101575.38;4986864;28;21039;-84
2022/04/13 08:38:58;;;;;;;34.47;17.63;;;;;;;20.55;55.74;101578.91;4989774;28;20300;-85
2022/04/13 08:41:39;;;;;;;29.27;17.50;;;;;;;20.31;58.78;101586.31;4989538;28;20423;-85
2022/04/13 08:44:14;;;;;;;34.85;18.98;;;;;;;19.81;59.05;101586.25;4990932;28;20285;-85
2022/04/13 08:46:41;;;;;;;34.60;17.48;;;;;;;19.39;58.23;101595.28;4990674;28;20442;-85
2022/04/13 08:49:09;;;;;;;31.90;17.65;;;;;;;19.26;60.99;101595.03;4989256;28;20387;-85
2022/04/13 08:51:36;;;;;;;34.25;19.67;;;;;;;19.08;60.15;101595.91;4990646;28;20050;-85
2022/04/13 08:54:09;;;;;;;33.38;18.10;;;;;;;19.03;59.49;101592.66;4991257;28;20026;-85
2022/04/13 08:56:35;;;;;;;33.40;18.00;;;;;;;19.10;59.28;101601.97;4989395;28;20034;-85
2022/04/13 08:59:13;;;;;;;31.48;18.00;;;;;;;19.13;59.63;101608.84;4990726;28;20054;-85
2022/04/13 09:02:10;;;;;;;33.28;17.58;;;;;;;19.29;61.10;101612.44;4990574;28;20118;-85
2022/04/13 09:04:37;;;;;;;34.25;19.45;;;;;;;19.43;60.62;101599.50;4990522;28;20077;-85
2022/04/13 09:07:03;;;;;;;30.75;17.08;;;;;;;19.67;59.66;101611.47;4990471;28;20050;-85
2022/04/13 09:09:40;;;;;;;30.40;16.98;;;;;;;20.10;60.57;101611.97;4990316;28;20050;-85
2022/04/13 09:12:08;;;;;;;29.00;16.63;;;;;;;20.42;58.77;101600.63;5021945;28;20088;-85
2022/04/13 09:14:37;;;;;;;35.47;17.95;;;;;;;20.61;57.81;101602.31;4990201;28;20042;-84
2022/04/13 09:17:04;;;;;;;33.92;17.77;;;;;;;20.65;56.74;101615.22;4993257;28;20042;-85
2022/04/13 09:19:30;;;;;;;30.65;17.67;;;;;;;20.66;55.75;101595.00;4976756;28;20039;-85
2022/04/13 09:21:56;;;;;;;29.30;15.98;;;;;;;20.78;57.02;101604.88;4993745;28;20036;-85
2022/04/13 09:24:22;;;;;;;30.52;16.13;;;;;;;20.87;55.85;101609.66;4995701;28;20080;-85
2022/04/13 09:26:48;;;;;;;30.77;17.48;;;;;;;20.92;56.65;101605.00;4990195;28;20037;-85
2022/04/13 09:29:14;;;;;;;29.77;15.73;;;;;;;21.00;53.70;101620.38;4990109;28;20109;-85
2022/04/13 09:31:39;;;;;;;27.35;15.43;;;;;;;20.85;54.63;101620.28;4989972;28;20077;-85
2022/04/13 09:34:04;;;;;;;23.58;15.05;;;;;;;20.74;53.97;101621.81;4989719;28;20053;-85
2022/04/13 09:36:30;;;;;;;35.05;18.10;;;;;;;20.47;55.36;101626.75;4993928;28;20056;-85
2022/04/13 09:38:56;;;;;;;28.42;16.30;;;;;;;20.43;55.40;101633.09;4983803;28;20142;-85
2022/04/13 09:41:32;;;;;;;31.23;16.65;;;;;;;20.39;59.08;101637.69;5019544;28;20057;-85
2022/04/13 09:43:58;;;;;;;27.92;16.35;;;;;;;20.33;55.68;101637.16;4997881;28;20034;-85
2022/04/13 09:46:30;;;;;;;35.92;17.88;;;;;;;20.27;55.79;101637.41;4998515;28;20045;-85
2022/04/13 09:49:15;;;;;;;28.63;16.23;;;;;;;20.16;57.10;101640.59;4989693;28;20089;-85
2022/04/13 09:51:46;;;;;;;26.98;15.38;;;;;;;19.90;57.26;101639.28;4988351;28;20042;-85
2022/04/13 09:54:12;;;;;;;35.80;20.08;;;;;;;19.74;56.58;101643.59;5003130;28;20072;-85
2022/04/13 09:56:47;;;;;;;31.65;18.02;;;;;;;19.49;57.56;101645.72;4989690;28;20523;-85
2022/04/13 09:59:23;;;;;;;28.60;17.15;;;;;;;19.28;56.96;101651.03;4995296;28;20041;-84
2022/04/13 10:01:49;;;;;;;28.38;16.80;;;;;;;19.10;57.90;101653.69;4995754;28;20022;-85
2022/04/13 10:04:31;;;;;;;69.50;27.98;;;;;;;18.93;58.96;101654.44;4990006;28;20026;-85
2022/04/13 10:07:14;;;;;;;35.67;19.15;;;;;;;18.78;60.42;101644.59;4989857;28;20018;-85
2022/04/13 10:09:40;;;;;;;47.73;25.90;;;;;;;18.65;60.10;101646.94;4986002;28;20068;-85
2022/04/13 10:12:05;;;;;;;30.90;19.00;;;;;;;18.48;60.30;101652.06;4983697;28;20301;-85
2022/04/13 10:14:31;;;;;;;30.50;17.90;;;;;;;18.42;60.84;101652.31;4990787;28;20285;-85
2022/04/13 10:17:14;;;;;;;30.92;20.73;;;;;;;18.33;60.62;101661.44;4988976;28;20126;-85
2022/04/13 10:19:40;;;;;;;37.85;23.25;;;;;;;18.19;61.91;101661.19;4990343;28;20053;-85
2022/04/13 10:22:05;;;;;;;51.33;27.65;;;;;;;18.07;61.21;101664.31;4991019;28;20084;-84
2022/04/13 10:24:33;;;;;;;38.33;21.35;;;;;;;17.97;61.41;101655.09;4992429;28;20034;-84
2022/04/13 10:27:19;;;;;;;37.05;21.80;;;;;;;17.93;62.65;101658.78;4997544;28;20436;-85
2022/04/13 10:29:49;;;;;;;36.15;20.95;;;;;;;17.86;62.98;101654.72;4979963;28;20491;-84
2022/04/13 10:32:16;;;;;;;31.92;19.75;;;;;;;17.85;63.04;101660.88;4993807;28;20383;-85
2022/04/13 10:34:44;;;;;;;34.38;20.30;;;;;;;17.84;62.76;101670.50;4994249;28;20029;-85
2022/04/13 10:37:12;;;;;;;34.30;20.15;;;;;;;17.82;63.13;101661.84;4993618;28;20026;-85
2022/04/13 10:39:38;;;;;;;37.78;20.02;;;;;;;17.76;62.98;101669.94;4997970;28;20125;-85
2022/04/13 10:42:06;;;;;;;33.60;19.67;;;;;;;17.73;63.98;101665.69;4996743;28;20113;-84
2022/04/13 10:44:36;;;;;;;36.67;19.90;;;;;;;17.62;64.32;101665.25;5003342;28;20023;-84
2022/04/13 10:47:06;;;;;;;32.72;18.95;;;;;;;17.51;66.28;101669.19;4992285;28;20034;-84
2022/04/13 10:50:01;;;;;;;34.38;18.48;;;;;;;17.52;65.05;101669.13;4993734;28;20482;-84
2022/04/13 10:52:56;;;;;;;35.47;18.27;;;;;;;17.50;66.82;101675.34;4994704;28;20030;-84
2022/04/13 10:55:22;;;;;;;33.10;17.30;;;;;;;17.50;65.08;101675.34;5005074;28;20503;-84
2022/04/13 10:57:52;;;;;;;29.25;16.27;;;;;;;17.53;65.57;101678.72;4991708;28;20490;-84
2022/04/13 11:00:20;;;;;;;28.20;16.15;;;;;;;17.55;67.01;101670.75;4989182;28;20041;-84
2022/04/13 11:02:57;;;;;;;29.25;16.30;;;;;;;17.58;66.16;101670.66;4993289;28;20443;-84
2022/04/13 11:05:25;;;;;;;29.65;15.68;;;;;;;17.70;64.97;101683.31;4993336;28;20307;-84
2022/04/13 11:07:58;;;;;;;28.05;16.98;;;;;;;17.75;64.42;101682.22;4993184;28;20419;-84
2022/04/13 11:10:25;;;;;;;28.90;16.67;;;;;;;17.69;65.17;101682.47;4991998;28;20527;-84